Terminal Aerodrome Forecast
Issued by NWS St Louis, MO

Home | Current Version | Previous Version | Text Only | Print | Product List | Glossary On
Versions: 1 2 3 4 5 6 7 8 9 10 11 12 13 14 15 16 17 18 19 20 21 22 23 24 25 26 27 28 29 30 31
000
FTUS43 KLSX 171100
TAFSTL
TAF
KSTL 171136Z 1712/1818 29005KT 3SM BR OVC008
     FM171400 30005KT P6SM OVC015
     FM171800 32006KT P6SM OVC020
     FM180300 35006KT P6SM SCT035
     FM180800 32003KT 3SM BR SCT025=

USA.gov is the U.S. government's official web portal to all federal, state and local government web resources and services.